Time;durP1;ratioP1;P1;durP2;ratioP2;P2;SDS_P1;SDS_P2;PMS_P1;PMS_P2;Temp;Humidity;BMP_temperature;BMP_pressure;BME280_temperature;BME280_humidity;BME280_pressure;Samples;Min_cycle;Max_cycle;Signal;HPM_P1;HPM_P2
2022/03/11 00:00:26;;;;;;;6.17;4.63;;;11.10;99.90;;;;;;5053396;28;20229;-83
2022/03/11 00:02:54;;;;;;;4.53;3.70;;;11.10;99.90;;;;;;5053818;28;20203;-84
2022/03/11 00:05:22;;;;;;;6.20;4.80;;;11.20;99.90;;;;;;5053415;28;20198;-80
2022/03/11 00:07:49;;;;;;;6.10;4.13;;;11.20;99.90;;;;;;5053947;28;20202;-79
2022/03/11 00:10:16;;;;;;;9.37;5.47;;;11.10;99.90;;;;;;5054169;28;20256;-81
2022/03/11 00:12:43;;;;;;;10.73;5.57;;;11.00;99.90;;;;;;5053405;28;20207;-82
2022/03/11 00:15:10;;;;;;;6.97;4.10;;;11.00;99.90;;;;;;5053296;28;20242;-80
2022/03/11 00:17:37;;;;;;;10.30;5.77;;;11.00;99.90;;;;;;5053400;28;20207;-83
2022/03/11 00:20:07;;;;;;;6.57;4.67;;;11.00;99.90;;;;;;5053606;28;20728;-79
2022/03/11 00:22:35;;;;;;;4.30;3.90;;;11.10;99.90;;;;;;5053346;28;20199;-82
2022/03/11 00:25:02;;;;;;;7.53;5.00;;;11.00;99.90;;;;;;5053592;28;20206;-83
2022/03/11 00:27:30;;;;;;;5.00;3.77;;;11.20;99.90;;;;;;5052701;28;20220;-84
2022/03/11 00:29:57;;;;;;;5.30;4.80;;;11.10;99.90;;;;;;5053716;28;20203;-83
2022/03/11 00:32:24;;;;;;;9.70;4.20;;;11.10;99.90;;;;;;5053302;28;20207;-84
2022/03/11 00:34:51;;;;;;;8.10;4.57;;;11.00;99.90;;;;;;5053486;28;20595;-83
2022/03/11 00:37:19;;;;;;;7.53;4.13;;;11.10;99.90;;;;;;5053517;28;20207;-82
2022/03/11 00:39:46;;;;;;;5.33;4.70;;;10.90;99.90;;;;;;5053461;28;20748;-83
2022/03/11 00:42:13;;;;;;;7.70;4.67;;;10.90;99.90;;;;;;5053704;28;20203;-82
2022/03/11 00:44:41;;;;;;;7.37;3.90;;;10.90;99.90;;;;;;5052775;28;20211;-80
2022/03/11 00:47:09;;;;;;;7.00;5.40;;;10.90;99.90;;;;;;5053368;28;20700;-83
2022/03/11 00:49:36;;;;;;;14.30;4.67;;;10.90;99.90;;;;;;5052623;28;20222;-82
2022/03/11 00:52:03;;;;;;;6.37;4.70;;;10.80;99.90;;;;;;5053241;28;20248;-81
2022/03/11 00:54:32;;;;;;;5.30;4.53;;;10.70;99.90;;;;;;5052350;28;20296;-84
2022/03/11 00:56:59;;;;;;;9.07;5.60;;;10.70;99.90;;;;;;5052924;28;20207;-81
2022/03/11 00:59:26;;;;;;;7.00;4.23;;;10.60;99.90;;;;;;5052658;28;20202;-84
2022/03/11 01:01:53;;;;;;;7.20;4.30;;;10.90;99.90;;;;;;5053036;28;20199;-83
2022/03/11 01:04:20;;;;;;;5.37;4.33;;;10.80;99.90;;;;;;5065245;28;20225;-76
2022/03/11 01:06:47;;;;;;;6.53;4.60;;;10.80;99.90;;;;;;5054067;28;20264;-82
2022/03/11 01:09:14;;;;;;;10.23;5.37;;;10.90;99.90;;;;;;5052962;28;20748;-83
2022/03/11 01:11:42;;;;;;;7.87;5.17;;;10.80;99.90;;;;;;5052362;28;20202;-83
2022/03/11 01:14:09;;;;;;;7.40;4.47;;;10.80;99.90;;;;;;5052353;28;20229;-83
2022/03/11 01:16:36;;;;;;;9.07;5.00;;;10.70;99.90;;;;;;5052191;28;20686;-82
2022/03/11 01:19:03;;;;;;;8.67;6.10;;;10.80;99.90;;;;;;5052406;28;20199;-82
2022/03/11 01:21:30;;;;;;;6.70;4.60;;;10.70;99.90;;;;;;5051857;28;20739;-81
2022/03/11 01:23:57;;;;;;;4.50;3.47;;;10.70;99.90;;;;;;5052598;28;20202;-82
2022/03/11 01:26:24;;;;;;;8.53;5.27;;;10.60;99.90;;;;;;5051769;28;20264;-83
2022/03/11 01:28:53;;;;;;;8.47;6.27;;;10.70;99.90;;;;;;5052463;28;20202;-85
2022/03/11 01:31:20;;;;;;;6.73;4.37;;;10.50;99.90;;;;;;5052166;28;20400;-76
2022/03/11 01:33:47;;;;;;;6.90;5.47;;;10.50;99.90;;;;;;5052500;28;20620;-83
2022/03/11 01:36:15;;;;;;;10.53;5.60;;;10.50;99.90;;;;;;5052144;28;20288;-82
2022/03/11 01:38:43;;;;;;;9.67;5.00;;;10.60;99.90;;;;;;5051561;28;20203;-82
2022/03/11 01:41:11;;;;;;;14.10;5.67;;;10.60;99.90;;;;;;5052128;28;20206;-84
2022/03/11 01:43:58;;;;;;;6.43;4.50;;;10.70;99.90;;;;;;5051750;28;20765;-80
2022/03/11 01:46:25;;;;;;;8.87;5.13;;;10.60;99.90;;;;;;5051545;28;20276;-82
2022/03/11 01:48:52;;;;;;;7.73;5.00;;;10.60;99.90;;;;;;5052003;28;20256;-85
2022/03/11 01:51:20;;;;;;;9.00;5.50;;;10.60;99.90;;;;;;5051636;28;20670;-81
2022/03/11 01:53:47;;;;;;;7.33;4.90;;;10.60;99.90;;;;;;5052160;28;20198;-81
2022/03/11 01:56:15;;;;;;;6.47;4.87;;;10.60;99.90;;;;;;5051859;28;20291;-82
2022/03/11 01:58:42;;;;;;;15.63;5.77;;;10.70;99.90;;;;;;5051320;28;20268;-81
2022/03/11 02:01:11;;;;;;;6.07;4.67;;;10.70;99.90;;;;;;5051612;28;20252;-82
2022/03/11 02:03:38;;;;;;;8.53;6.60;;;10.70;99.90;;;;;;5051209;28;20211;-81
2022/03/11 02:06:08;;;;;;;12.27;4.67;;;10.70;99.90;;;;;;5051672;28;20198;-82
2022/03/11 02:08:35;;;;;;;4.77;3.93;;;10.70;99.90;;;;;;5051254;28;20261;-81
2022/03/11 02:11:03;;;;;;;6.67;5.00;;;10.80;99.90;;;;;;5051405;28;20199;-82
2022/03/11 02:13:42;;;;;;;8.73;4.57;;;10.70;99.90;;;;;;5051006;28;20647;-82
2022/03/11 02:16:12;;;;;;;6.97;5.83;;;10.70;99.90;;;;;;5050538;28;20295;-83
2022/03/11 02:18:39;;;;;;;7.00;5.53;;;10.80;99.90;;;;;;5051241;28;20203;-81
2022/03/11 02:21:06;;;;;;;6.23;3.60;;;10.80;99.90;;;;;;5051434;28;20206;-81
2022/03/11 02:23:42;;;;;;;6.73;4.77;;;10.90;99.90;;;;;;5050649;28;20256;-80
2022/03/11 02:26:09;;;;;;;5.00;4.50;;;10.90;99.90;;;;;;5051107;28;20275;-81
2022/03/11 02:28:36;;;;;;;6.07;3.67;;;10.90;99.90;;;;;;5051116;28;20207;-82
2022/03/11 02:31:03;;;;;;;11.70;5.57;;;10.90;99.90;;;;;;5051755;28;20225;-82
2022/03/11 02:33:30;;;;;;;7.40;4.50;;;11.00;99.90;;;;;;5050998;28;20202;-81
2022/03/11 02:35:57;;;;;;;6.53;5.03;;;11.00;99.90;;;;;;5051084;28;20243;-80
2022/03/11 02:38:24;;;;;;;5.30;3.97;;;11.00;99.90;;;;;;5050382;28;20252;-78
2022/03/11 02:40:53;;;;;;;6.87;4.07;;;10.90;99.90;;;;;;5051188;28;20264;-82
2022/03/11 02:43:20;;;;;;;5.70;4.40;;;10.90;99.90;;;;;;5051075;28;20210;-75
2022/03/11 02:45:47;;;;;;;7.03;4.83;;;10.90;99.90;;;;;;5051589;28;20198;-79
2022/03/11 02:48:14;;;;;;;6.93;4.73;;;10.90;99.90;;;;;;5051355;28;20557;-79
2022/03/11 02:50:41;;;;;;;6.63;5.07;;;10.90;99.90;;;;;;5050611;28;20206;-78
2022/03/11 02:53:08;;;;;;;8.77;5.07;;;10.90;99.90;;;;;;5050817;28;20211;-82
2022/03/11 02:55:35;;;;;;;8.80;6.80;;;10.90;99.90;;;;;;5050645;28;20288;-81
2022/03/11 02:58:04;;;;;;;5.37;4.27;;;10.80;99.90;;;;;;5051274;28;20203;-83
2022/03/11 03:00:31;;;;;;;7.00;4.77;;;10.80;99.90;;;;;;5050593;28;20210;-80
2022/03/11 03:02:58;;;;;;;5.17;3.70;;;10.80;99.90;;;;;;5050666;28;20202;-82
2022/03/11 03:05:25;;;;;;;8.00;5.73;;;10.80;99.90;;;;;;5050350;28;20637;-78
2022/03/11 03:07:52;;;;;;;7.30;4.50;;;10.80;99.90;;;;;;5050726;28;20199;-83
2022/03/11 03:10:19;;;;;;;8.00;5.30;;;10.80;99.90;;;;;;5051078;28;20203;-83
2022/03/11 03:12:46;;;;;;;5.67;3.83;;;10.90;99.90;;;;;;5051152;28;20199;-81
2022/03/11 03:15:15;;;;;;;5.87;4.70;;;10.90;99.90;;;;;;5050716;28;20698;-79
2022/03/11 03:17:42;;;;;;;8.17;4.10;;;10.90;99.90;;;;;;5050251;28;20256;-78
2022/03/11 03:20:10;;;;;;;5.63;4.33;;;10.90;99.90;;;;;;5050538;28;20207;-80
2022/03/11 03:22:37;;;;;;;7.33;4.23;;;10.80;99.90;;;;;;5049836;28;20670;-80
2022/03/11 03:25:05;;;;;;;8.20;4.63;;;10.70;99.90;;;;;;5050716;28;20308;-80
2022/03/11 03:27:32;;;;;;;5.77;4.00;;;10.70;99.90;;;;;;5052073;28;20210;-81
2022/03/11 03:30:00;;;;;;;9.07;5.17;;;10.80;99.90;;;;;;5054452;28;20229;-79
2022/03/11 03:32:28;;;;;;;9.43;4.77;;;10.80;99.90;;;;;;5054057;28;20207;-78
2022/03/11 03:34:55;;;;;;;11.60;4.70;;;10.80;99.90;;;;;;5054254;28;20202;-79
2022/03/11 03:37:22;;;;;;;8.30;4.47;;;10.80;99.90;;;;;;5053424;28;20268;-78
2022/03/11 03:39:49;;;;;;;10.07;4.43;;;10.80;99.90;;;;;;5054015;28;20203;-79
2022/03/11 03:42:16;;;;;;;9.27;5.07;;;10.90;99.90;;;;;;5054641;28;20260;-80
2022/03/11 03:44:43;;;;;;;5.20;3.63;;;10.90;99.90;;;;;;5054083;28;20203;-79
2022/03/11 03:47:10;;;;;;;6.30;4.70;;;10.90;99.90;;;;;;5054115;28;20206;-78
2022/03/11 03:49:39;;;;;;;6.83;4.13;;;10.90;99.90;;;;;;5053643;28;20199;-84
2022/03/11 03:52:11;;;;;;;4.57;3.73;;;10.80;99.90;;;;;;5054036;28;20206;-79
2022/03/11 03:54:38;;;;;;;6.63;3.80;;;10.70;99.90;;;;;;5053695;28;20264;-79
2022/03/11 03:57:05;;;;;;;6.07;4.13;;;10.70;99.90;;;;;;5053936;28;20257;-80
2022/03/11 03:59:33;;;;;;;9.60;5.50;;;10.70;99.90;;;;;;5053540;28;20206;-82
2022/03/11 04:02:00;;;;;;;9.83;4.93;;;10.80;99.90;;;;;;5053685;28;20206;-80
2022/03/11 04:04:27;;;;;;;3.73;3.43;;;10.70;99.90;;;;;;5053651;28;20207;-77
2022/03/11 04:06:55;;;;;;;3.73;3.30;;;10.80;99.90;;;;;;5053932;28;20617;-73
2022/03/11 04:09:22;;;;;;;8.37;4.33;;;10.90;99.90;;;;;;5053242;28;20213;-80
2022/03/11 04:11:49;;;;;;;7.50;4.00;;;10.80;99.90;;;;;;5053636;28;20207;-80
2022/03/11 04:14:16;;;;;;;5.33;3.80;;;10.70;99.90;;;;;;5054093;28;20631;-80
2022/03/11 04:16:43;;;;;;;7.00;4.77;;;10.80;99.90;;;;;;5053261;28;20237;-80
2022/03/11 04:19:10;;;;;;;6.40;3.40;;;10.70;99.90;;;;;;5053784;28;20632;-80
2022/03/11 04:21:37;;;;;;;7.27;3.60;;;10.70;99.90;;;;;;5053101;28;20280;-81
2022/03/11 04:24:14;;;;;;;6.00;3.73;;;10.70;99.90;;;;;;5053489;28;20260;-80
2022/03/11 04:26:43;;;;;;;5.73;4.63;;;10.70;99.90;;;;;;5052918;28;20217;-82
2022/03/11 04:29:10;;;;;;;8.43;4.40;;;10.80;99.90;;;;;;5053282;28;20286;-80
2022/03/11 04:31:37;;;;;;;5.30;4.10;;;10.70;99.90;;;;;;5052943;28;20690;-80
2022/03/11 04:34:04;;;;;;;4.17;3.67;;;10.70;99.90;;;;;;5053097;28;20257;-79
2022/03/11 04:36:38;;;;;;;10.70;4.80;;;10.70;99.90;;;;;;5052904;28;20234;-81
2022/03/11 04:39:06;;;;;;;4.93;3.60;;;10.70;99.90;;;;;;5052000;28;20249;-78
2022/03/11 04:41:34;;;;;;;5.20;3.90;;;10.80;99.90;;;;;;5052745;28;20199;-77
2022/03/11 04:44:01;;;;;;;11.17;3.97;;;10.80;99.90;;;;;;5053027;28;20581;-83
2022/03/11 04:46:28;;;;;;;5.57;3.80;;;10.80;99.90;;;;;;5052618;28;20214;-82
2022/03/11 04:48:55;;;;;;;5.80;4.10;;;10.90;99.90;;;;;;5052941;28;20272;-78
2022/03/11 04:51:22;;;;;;;4.87;3.23;;;10.90;99.90;;;;;;5052649;28;20202;-80
2022/03/11 04:53:49;;;;;;;11.10;4.33;;;11.00;99.90;;;;;;5052940;28;20203;-78
2022/03/11 04:56:18;;;;;;;13.30;4.30;;;11.10;99.90;;;;;;5053111;28;20645;-79
2022/03/11 04:58:45;;;;;;;10.67;3.83;;;11.10;99.90;;;;;;5053214;28;20213;-78
2022/03/11 05:01:12;;;;;;;5.77;3.57;;;11.10;99.90;;;;;;5052927;28;20261;-78
2022/03/11 05:03:39;;;;;;;4.17;2.80;;;11.10;99.90;;;;;;5052021;28;20199;-81
2022/03/11 05:06:06;;;;;;;6.73;3.43;;;11.10;99.90;;;;;;5053254;28;20202;-78
2022/03/11 05:08:33;;;;;;;3.90;2.53;;;11.20;99.90;;;;;;5052214;28;20256;-81
2022/03/11 05:11:00;;;;;;;4.47;3.37;;;11.30;99.90;;;;;;5052833;28;20619;-80
2022/03/11 05:13:28;;;;;;;5.97;3.73;;;11.20;99.90;;;;;;5052023;28;20612;-80
2022/03/11 05:15:55;;;;;;;5.90;3.00;;;11.20;99.90;;;;;;5052424;28;20227;-82
2022/03/11 05:18:22;;;;;;;4.60;3.10;;;11.20;99.90;;;;;;5051931;28;20236;-79
2022/03/11 05:20:49;;;;;;;4.97;3.10;;;11.10;99.90;;;;;;5052347;28;20629;-80
2022/03/11 05:23:16;;;;;;;5.93;3.13;;;11.10;99.90;;;;;;5052557;28;20249;-80
2022/03/11 05:25:44;;;;;;;7.20;3.70;;;11.10;99.90;;;;;;5052366;28;20215;-79
2022/03/11 05:28:11;;;;;;;3.90;3.07;;;11.00;99.90;;;;;;5052343;28;20211;-81
2022/03/11 05:30:39;;;;;;;3.80;2.53;;;11.10;99.90;;;;;;5051805;28;20260;-80
2022/03/11 05:33:06;;;;;;;3.87;3.43;;;11.10;99.90;;;;;;5052024;28;20664;-77
2022/03/11 05:35:34;;;;;;;8.53;4.00;;;11.00;99.90;;;;;;5051503;28;20211;-80
2022/03/11 05:38:01;;;;;;;4.37;2.63;;;11.10;99.90;;;;;;5052315;28;20256;-79
2022/03/11 05:40:28;;;;;;;6.10;3.57;;;11.00;99.90;;;;;;5051607;28;20256;-84
2022/03/11 05:42:55;;;;;;;6.07;3.70;;;11.00;99.90;;;;;;5051968;28;20203;-81
2022/03/11 05:45:22;;;;;;;6.17;3.70;;;11.10;99.90;;;;;;5051625;28;20199;-78
2022/03/11 05:47:50;;;;;;;4.33;3.67;;;11.00;99.90;;;;;;5051520;28;20272;-75
2022/03/11 05:50:18;;;;;;;5.70;3.13;;;11.00;99.90;;;;;;5051889;28;20203;-80
2022/03/11 05:52:45;;;;;;;6.50;3.27;;;11.00;99.90;;;;;;5051680;28;20246;-79
2022/03/11 05:55:12;;;;;;;5.10;3.33;;;10.90;99.90;;;;;;5051675;28;20242;-79
2022/03/11 05:57:39;;;;;;;6.03;3.90;;;10.90;99.90;;;;;;5050881;28;20239;-77
2022/03/11 06:00:08;;;;;;;5.37;3.70;;;10.90;99.90;;;;;;5051506;28;20203;-78
2022/03/11 06:02:38;;;;;;;4.97;2.87;;;10.90;99.90;;;;;;5050450;28;20207;-79
2022/03/11 06:05:10;;;;;;;5.03;3.40;;;10.90;99.90;;;;;;5051288;28;20217;-73
2022/03/11 06:07:37;;;;;;;10.87;4.10;;;10.70;99.90;;;;;;5050862;28;20722;-73
2022/03/11 06:10:05;;;;;;;8.67;3.83;;;10.80;99.90;;;;;;5051316;28;20725;-72
2022/03/11 06:12:32;;;;;;;7.10;4.03;;;10.80;99.90;;;;;;5050963;28;20638;-72
2022/03/11 06:14:59;;;;;;;7.20;3.23;;;10.70;99.90;;;;;;5051351;28;20203;-72
2022/03/11 06:17:26;;;;;;;7.33;3.23;;;10.90;99.90;;;;;;5050298;28;20242;-72
2022/03/11 06:19:53;;;;;;;7.43;3.33;;;10.90;99.90;;;;;;5051494;28;20205;-74
2022/03/11 06:22:21;;;;;;;9.00;4.37;;;10.80;99.90;;;;;;5051221;28;20260;-72
2022/03/11 06:24:48;;;;;;;6.50;4.47;;;10.90;99.90;;;;;;5051366;28;20280;-75
2022/03/11 06:27:15;;;;;;;5.97;4.10;;;10.80;99.90;;;;;;5051483;28;20198;-73
2022/03/11 06:29:42;;;;;;;5.03;3.73;;;10.90;99.90;;;;;;5050713;28;20240;-73
2022/03/11 06:32:10;;;;;;;7.40;3.50;;;10.90;99.90;;;;;;5050838;28;20207;-72
2022/03/11 06:34:38;;;;;;;7.70;3.33;;;11.00;99.90;;;;;;5050558;28;20607;-74
2022/03/11 06:37:05;;;;;;;6.60;3.33;;;10.90;99.90;;;;;;5050703;28;20234;-75
2022/03/11 06:39:34;;;;;;;7.43;3.40;;;11.00;99.90;;;;;;5050917;28;20293;-76
2022/03/11 06:42:02;;;;;;;9.23;3.70;;;11.00;99.90;;;;;;5050739;28;20238;-78
2022/03/11 06:44:29;;;;;;;4.07;2.80;;;10.90;99.90;;;;;;5050286;28;20207;-74
2022/03/11 06:46:56;;;;;;;4.10;3.30;;;11.10;99.90;;;;;;5051100;28;20202;-76
2022/03/11 06:49:23;;;;;;;6.33;3.40;;;11.00;99.90;;;;;;5050624;28;20260;-75
2022/03/11 06:51:50;;;;;;;8.47;3.50;;;11.10;99.90;;;;;;5050914;28;20256;-75
2022/03/11 06:54:17;;;;;;;8.73;3.23;;;11.30;99.90;;;;;;5051001;28;20662;-77
2022/03/11 06:56:45;;;;;;;6.23;3.87;;;11.30;99.90;;;;;;5050569;28;20717;-76
2022/03/11 06:59:12;;;;;;;4.03;2.97;;;11.40;99.90;;;;;;5050849;28;20202;-77
2022/03/11 07:01:39;;;;;;;5.93;3.20;;;11.40;99.90;;;;;;5050070;28;20203;-76
2022/03/11 07:04:06;;;;;;;3.23;2.70;;;11.40;99.90;;;;;;5050730;28;20202;-75
2022/03/11 07:06:33;;;;;;;6.03;2.90;;;11.50;99.90;;;;;;5050278;28;20732;-78
2022/03/11 07:09:00;;;;;;;6.27;3.37;;;11.50;99.90;;;;;;5050807;28;20565;-77
2022/03/11 07:11:27;;;;;;;4.70;3.60;;;11.50;99.90;;;;;;5050175;28;20211;-77
2022/03/11 07:13:55;;;;;;;5.80;2.73;;;11.60;99.90;;;;;;5050739;28;20203;-76
2022/03/11 07:16:22;;;;;;;8.23;3.53;;;11.50;99.90;;;;;;5050039;28;20632;-73
2022/03/11 07:18:49;;;;;;;5.47;3.60;;;11.60;99.90;;;;;;5050699;28;20206;-75
2022/03/11 07:21:16;;;;;;;10.73;2.83;;;11.70;99.90;;;;;;5050997;28;20742;-74
2022/03/11 07:23:43;;;;;;;5.47;3.00;;;11.70;99.90;;;;;;5050319;28;20213;-75
2022/03/11 07:26:10;;;;;;;9.93;3.83;;;11.70;99.90;;;;;;5050234;28;20211;-74
2022/03/11 07:28:37;;;;;;;4.17;2.67;;;11.80;99.90;;;;;;5049966;28;20556;-75
2022/03/11 07:31:05;;;;;;;7.43;3.30;;;11.70;99.90;;;;;;5050626;28;20206;-77
2022/03/11 07:33:33;;;;;;;3.67;2.80;;;11.80;99.90;;;;;;5050000;28;20232;-75
2022/03/11 07:36:00;;;;;;;8.27;2.67;;;11.80;99.90;;;;;;5050346;28;20210;-75
2022/03/11 07:38:30;;;;;;;5.87;3.00;;;11.80;99.90;;;;;;5049934;28;20211;-72
2022/03/11 07:40:58;;;;;;;3.70;2.87;;;11.80;99.90;;;;;;5050343;28;20207;-74
2022/03/11 07:43:26;;;;;;;4.70;3.13;;;11.80;99.90;;;;;;5049902;28;20198;-74
2022/03/11 07:45:53;;;;;;;5.30;2.93;;;11.90;99.90;;;;;;5050260;28;20203;-76
2022/03/11 07:48:22;;;;;;;5.83;3.47;;;11.80;99.90;;;;;;5049945;28;20211;-76
2022/03/11 07:50:49;;;;;;;3.97;2.97;;;11.90;99.90;;;;;;5050076;28;20203;-73
2022/03/11 07:53:16;;;;;;;5.47;2.60;;;11.80;99.90;;;;;;5050334;28;20202;-72
2022/03/11 07:55:43;;;;;;;7.43;3.20;;;11.80;99.90;;;;;;5050260;28;20211;-74
2022/03/11 07:58:10;;;;;;;6.63;2.80;;;11.90;99.90;;;;;;5049757;28;20277;-73
2022/03/11 08:00:41;;;;;;;5.00;3.13;;;12.30;99.90;;;;;;5049886;28;20207;-74
2022/03/11 08:03:08;;;;;;;5.57;3.40;;;12.50;99.90;;;;;;5049929;28;20547;-74
2022/03/11 08:05:36;;;;;;;4.27;2.80;;;12.40;99.90;;;;;;5049622;28;20611;-73
2022/03/11 08:08:03;;;;;;;3.67;2.80;;;12.40;99.90;;;;;;5050250;28;20207;-75
2022/03/11 08:10:33;;;;;;;2.90;2.60;;;12.60;99.90;;;;;;5049563;28;20555;-74
2022/03/11 08:13:00;;;;;;;3.78;2.83;;;12.80;99.90;;;;;;5050236;28;20209;-74
2022/03/11 08:15:28;;;;;;;7.50;3.67;;;12.90;99.90;;;;;;5052700;28;20560;-76
2022/03/11 08:17:55;;;;;;;5.00;3.03;;;13.10;99.90;;;;;;5053469;28;20592;-74
2022/03/11 08:20:22;;;;;;;5.75;3.28;;;13.10;99.90;;;;;;5053150;28;20253;-77
2022/03/11 08:22:51;;;;;;;5.88;3.50;;;13.10;99.90;;;;;;5053370;28;20203;-74
2022/03/11 08:25:19;;;;;;;4.30;2.67;;;13.00;99.90;;;;;;5053791;28;20210;-77
2022/03/11 08:27:47;;;;;;;6.15;3.95;;;13.00;99.90;;;;;;5053521;28;20207;-75
2022/03/11 08:30:14;;;;;;;6.28;3.40;;;13.10;99.90;;;;;;5053710;28;20206;-75
2022/03/11 08:32:42;;;;;;;2.70;2.38;;;13.50;99.90;;;;;;5052984;28;20206;-77
2022/03/11 08:35:10;;;;;;;9.35;3.58;;;13.40;99.90;;;;;;5053217;28;20213;-75
2022/03/11 08:37:37;;;;;;;5.90;2.95;;;13.40;99.90;;;;;;5052546;28;20266;-75
2022/03/11 08:40:08;;;;;;;7.20;3.15;;;13.50;99.90;;;;;;5053321;28;20228;-75
2022/03/11 08:42:37;;;;;;;4.45;2.78;;;13.70;99.90;;;;;;5052571;28;20203;-73
2022/03/11 08:45:04;;;;;;;7.50;3.10;;;13.80;99.90;;;;;;5053194;28;20217;-75
2022/03/11 08:47:31;;;;;;;4.03;3.05;;;14.30;99.90;;;;;;5052592;28;20214;-75
2022/03/11 08:49:59;;;;;;;7.00;3.75;;;14.70;99.90;;;;;;5052919;28;20253;-74
2022/03/11 08:52:26;;;;;;;5.90;3.10;;;14.60;99.90;;;;;;5052485;28;20202;-76
2022/03/11 08:54:53;;;;;;;5.72;3.45;;;14.00;99.90;;;;;;5052848;28;20207;-76
2022/03/11 08:57:21;;;;;;;4.72;2.85;;;13.70;99.90;;;;;;5052439;28;20226;-74
2022/03/11 08:59:48;;;;;;;4.40;4.00;;;13.70;99.90;;;;;;5052758;28;20203;-71
2022/03/11 09:02:16;;;;;;;3.67;3.20;;;13.70;99.90;;;;;;5053095;28;20207;-74
2022/03/11 09:04:44;;;;;;;3.50;3.15;;;13.80;99.90;;;;;;5052634;28;20306;-74
2022/03/11 09:07:11;;;;;;;5.40;2.47;;;13.80;99.90;;;;;;5052827;28;20206;-73
2022/03/11 09:09:38;;;;;;;8.80;3.50;;;13.90;99.90;;;;;;5052029;28;20272;-79
2022/03/11 09:12:05;;;;;;;6.10;3.55;;;14.00;99.90;;;;;;5052546;28;20663;-75
2022/03/11 09:14:34;;;;;;;5.85;2.90;;;14.00;99.90;;;;;;5051931;28;20249;-76
2022/03/11 09:17:01;;;;;;;3.28;2.80;;;13.80;99.90;;;;;;5052769;28;20280;-79
2022/03/11 09:19:28;;;;;;;4.68;3.15;;;13.90;99.90;;;;;;5052402;28;20242;-80
2022/03/11 09:21:55;;;;;;;4.05;2.78;;;14.10;99.90;;;;;;5052628;28;20203;-75
2022/03/11 09:24:22;;;;;;;5.25;3.53;;;14.40;99.90;;;;;;5051353;28;20203;-75
2022/03/11 09:26:51;;;;;;;4.95;3.40;;;14.40;99.90;;;;;;5052083;28;20225;-74
2022/03/11 09:29:18;;;;;;;8.77;3.20;;;14.00;99.90;;;;;;5052129;28;20546;-74
2022/03/11 09:31:47;;;;;;;4.03;2.67;;;13.90;99.90;;;;;;5052625;28;20286;-74
2022/03/11 09:34:14;;;;;;;4.47;3.03;;;13.90;99.90;;;;;;5052530;28;20203;-74
2022/03/11 09:36:42;;;;;;;6.05;2.92;;;13.70;99.90;;;;;;5051454;28;20268;-72
2022/03/11 09:39:09;;;;;;;4.50;2.72;;;13.70;99.90;;;;;;5051514;28;20733;-73
2022/03/11 09:41:37;;;;;;;4.22;2.72;;;13.70;99.90;;;;;;5051499;28;20206;-73
2022/03/11 09:44:05;;;;;;;6.78;3.22;;;13.50;99.90;;;;;;5052078;28;20207;-76
2022/03/11 09:46:34;;;;;;;6.68;3.58;;;13.60;99.90;;;;;;5051411;28;20675;-74
2022/03/11 09:49:04;;;;;;;6.53;3.67;;;13.70;99.90;;;;;;5051823;28;20701;-74
2022/03/11 09:51:34;;;;;;;6.80;3.00;;;13.80;99.90;;;;;;5051165;28;20243;-74
2022/03/11 09:54:01;;;;;;;6.75;3.25;;;13.80;99.90;;;;;;5051444;28;20357;-73
2022/03/11 09:56:29;;;;;;;3.80;2.75;;;13.90;99.90;;;;;;5051479;28;20211;-74
2022/03/11 09:58:56;;;;;;;5.68;3.00;;;13.90;99.90;;;;;;5051737;28;20329;-74
2022/03/11 10:01:23;;;;;;;4.18;2.60;;;13.90;99.90;;;;;;5051360;28;20200;-76
2022/03/11 10:03:50;;;;;;;6.13;3.80;;;13.90;99.90;;;;;;5051527;28;20612;-74
2022/03/11 10:06:38;;;;;;;7.00;3.72;;;13.90;99.90;;;;;;5051868;28;20203;-76
2022/03/11 10:09:05;;;;;;;10.25;3.30;;;14.10;99.90;;;;;;5051015;28;20655;-80
2022/03/11 10:11:33;;;;;;;5.10;2.92;;;14.40;99.90;;;;;;5051266;28;20203;-75
2022/03/11 10:14:05;;;;;;;4.32;3.22;;;14.50;99.90;;;;;;5051349;28;20203;-74
2022/03/11 10:16:33;;;;;;;4.40;2.67;;;14.50;99.90;;;;;;5050874;28;20601;-73
2022/03/11 10:19:01;;;;;;;4.53;2.90;;;14.40;99.90;;;;;;5051189;28;20231;-75
2022/03/11 10:21:34;;;;;;;5.70;3.38;;;14.50;99.90;;;;;;5051122;28;20215;-75
2022/03/11 10:24:03;;;;;;;3.55;3.22;;;14.60;99.90;;;;;;5051091;28;20257;-74
2022/03/11 10:26:32;;;;;;;4.80;2.88;;;14.70;99.90;;;;;;5050722;28;20246;-80
2022/03/11 10:28:59;;;;;;;6.47;2.67;;;15.00;99.90;;;;;;5051200;28;20210;-76
2022/03/11 10:31:30;;;;;;;4.07;2.70;;;14.50;99.90;;;;;;5050660;28;20261;-73
2022/03/11 10:34:20;;;;;;;5.43;2.78;;;14.50;99.90;;;;;;5051388;28;20260;-75
2022/03/11 10:36:51;;;;;;;4.25;2.88;;;14.30;99.90;;;;;;5050289;28;20265;-74
2022/03/11 10:39:19;;;;;;;6.65;2.80;;;14.40;99.90;;;;;;5050906;28;20281;-74
2022/03/11 10:41:49;;;;;;;3.60;2.97;;;14.50;99.90;;;;;;5051373;28;20248;-77
2022/03/11 10:44:19;;;;;;;4.07;2.90;;;14.70;99.90;;;;;;5051480;28;20203;-80
2022/03/11 10:46:46;;;;;;;5.32;2.80;;;14.50;99.90;;;;;;5051408;28;20203;-75
2022/03/11 10:49:23;;;;;;;7.07;3.40;;;14.60;99.90;;;;;;5051387;28;20297;-79
2022/03/11 10:51:54;;;;;;;8.82;3.30;;;14.50;99.90;;;;;;5050887;28;20202;-75
2022/03/11 10:54:27;;;;;;;5.28;3.13;;;14.70;99.90;;;;;;5050419;28;20202;-78
2022/03/11 10:56:54;;;;;;;5.80;3.00;;;14.60;99.90;;;;;;5050833;28;20293;-72
2022/03/11 10:59:28;;;;;;;4.57;3.58;;;14.50;99.90;;;;;;5050566;28;20238;-78
2022/03/11 11:01:57;;;;;;;5.43;2.95;;;14.30;99.90;;;;;;5051080;28;20293;-83
2022/03/11 11:04:26;;;;;;;3.65;2.88;;;14.50;99.90;;;;;;5050483;28;20203;-76
2022/03/11 11:06:56;;;;;;;4.05;2.83;;;14.20;99.90;;;;;;5050391;28;20203;-74
2022/03/11 11:09:23;;;;;;;6.60;2.95;;;14.30;99.90;;;;;;5050271;28;20225;-75
2022/03/11 11:11:51;;;;;;;5.72;3.28;;;14.30;99.90;;;;;;5050879;28;20576;-75
2022/03/11 11:14:18;;;;;;;8.05;3.30;;;14.10;99.90;;;;;;5050570;28;20286;-74
2022/03/11 11:16:49;;;;;;;3.50;2.90;;;14.40;99.90;;;;;;5050853;28;20203;-75
2022/03/11 11:19:17;;;;;;;5.15;3.10;;;14.40;99.90;;;;;;5050675;28;20325;-73
2022/03/11 11:21:45;;;;;;;4.97;3.05;;;14.50;99.90;;;;;;5050278;28;20205;-74
2022/03/11 11:24:15;;;;;;;6.10;3.15;;;14.60;99.90;;;;;;5050772;28;20273;-74
2022/03/11 11:26:46;;;;;;;4.47;3.72;;;14.80;99.90;;;;;;5050063;28;20260;-77
2022/03/11 11:29:15;;;;;;;5.80;2.97;;;14.80;99.90;;;;;;5050741;28;20306;-72
2022/03/11 11:31:43;;;;;;;5.35;3.00;;;14.80;99.90;;;;;;5050045;28;20675;-74
2022/03/11 11:34:27;;;;;;;3.42;3.13;;;14.70;99.90;;;;;;5050423;28;20211;-73
2022/03/11 11:36:55;;;;;;;4.20;3.58;;;14.60;99.90;;;;;;5050467;28;20210;-73
2022/03/11 11:39:26;;;;;;;5.55;3.33;;;14.70;99.90;;;;;;5049669;28;20230;-79
2022/03/11 11:41:54;;;;;;;5.80;3.22;;;14.50;99.90;;;;;;5050389;28;20282;-74
2022/03/11 11:44:33;;;;;;;5.70;3.55;;;14.60;99.90;;;;;;5049796;28;20253;-74
2022/03/11 11:47:13;;;;;;;4.03;3.30;;;14.50;99.90;;;;;;5050458;28;20294;-75
2022/03/11 11:49:45;;;;;;;7.13;4.28;;;14.40;99.90;;;;;;5053316;28;20261;-74
2022/03/11 11:52:27;;;;;;;4.25;3.08;;;14.40;99.90;;;;;;5054085;28;20294;-74
2022/03/11 11:55:13;;;;;;;5.68;3.58;;;14.40;99.90;;;;;;5053948;28;20250;-75
2022/03/11 11:57:42;;;;;;;5.57;3.70;;;14.40;99.90;;;;;;5053633;28;20701;-77
2022/03/11 12:00:34;;;;;;;6.57;3.58;;;14.40;99.90;;;;;;5054094;28;20294;-72
2022/03/11 12:03:01;;;;;;;3.55;2.90;;;14.40;99.90;;;;;;5053592;28;20234;-74
2022/03/11 12:05:42;;;;;;;4.43;3.40;;;14.30;99.90;;;;;;5053126;28;20256;-75
2022/03/11 12:08:10;;;;;;;3.83;3.22;;;14.30;99.90;;;;;;5053721;28;20626;-77
2022/03/11 12:10:51;;;;;;;3.92;3.47;;;14.40;99.90;;;;;;5053338;28;20253;-74
2022/03/11 12:13:32;;;;;;;8.93;3.88;;;14.50;99.90;;;;;;5054011;28;20681;-73
2022/03/11 12:16:00;;;;;;;7.47;3.72;;;14.50;99.90;;;;;;5053775;28;20289;-76
2022/03/11 12:18:45;;;;;;;5.78;3.35;;;14.50;99.90;;;;;;5053137;28;20253;-76
2022/03/11 12:21:27;;;;;;;6.10;3.90;;;14.40;99.90;;;;;;5053514;28;20205;-76
2022/03/11 12:23:54;;;;;;;3.80;2.45;;;14.30;99.90;;;;;;5053644;28;20207;-75
2022/03/11 12:26:35;;;;;;;4.93;2.72;;;14.30;99.90;;;;;;5053013;28;20206;-75
2022/03/11 12:29:02;;;;;;;6.65;3.67;;;14.50;99.90;;;;;;5053328;28;20252;-78
2022/03/11 12:31:30;;;;;;;3.97;3.05;;;14.80;99.90;;;;;;5052862;28;20206;-75
2022/03/11 12:34:00;;;;;;;5.05;3.05;;;15.00;99.90;;;;;;5053202;28;20203;-74
2022/03/11 12:36:28;;;;;;;4.57;3.70;;;15.30;99.90;;;;;;5052738;28;20217;-74
2022/03/11 12:38:55;;;;;;;4.18;3.25;;;15.50;99.90;;;;;;5053171;28;20323;-74
2022/03/11 12:41:26;;;;;;;4.43;2.92;;;15.20;99.90;;;;;;5052956;28;20198;-74
2022/03/11 12:43:54;;;;;;;5.18;3.15;;;15.20;99.90;;;;;;5052968;28;20207;-74
2022/03/11 12:46:21;;;;;;;6.20;3.17;;;15.10;99.90;;;;;;5052749;28;20229;-75
2022/03/11 12:48:48;;;;;;;3.70;3.25;;;15.20;99.90;;;;;;5053205;28;20229;-73
2022/03/11 12:51:18;;;;;;;5.05;3.88;;;15.10;99.90;;;;;;5052996;28;20229;-75